This is the latest recevied weather packets stored in our database for station/object DC1NF-7. If no packets are shown the sender has not sent any weather packets the latest 10 day(s).
| Time | Temp. | Humidity | Pressure | Rain* | Wind** | Luminosity | Snow |
|---|---|---|---|---|---|---|---|
| 1777251917 | 2.78° C | 78% | 1023.5 hPa | 0 mm | - | 0 W/m² | - |
| 1777251372 | 3.33° C | 77% | 1023.6 hPa | 0 mm | - | 0 W/m² | - |
| 1777250771 | 3.33° C | 76% | 1023.6 hPa | 0 mm | - | 0 W/m² | - |
| 1777250165 | 3.33° C | 77% | 1023.5 hPa | 0 mm | - | 0 W/m² | - |
| 1777249561 | 3.33° C | 76% | 1023.6 hPa | 0 mm | - | 0 W/m² | - |
| 1777248961 | 3.89° C | 76% | 1023.7 hPa | 0 mm | - | 0 W/m² | - |
| 1777248358 | 3.89° C | 74% | 1023.7 hPa | 0 mm | - | 0 W/m² | - |
| 1777247752 | 3.89° C | 74% | 1023.7 hPa | 0 mm | - | 0 W/m² | - |
| 1777247148 | 3.89° C | 75% | 1023.7 hPa | 0 mm | - | 0 W/m² | - |
| 1777246548 | 3.89° C | 76% | 1023.7 hPa | 0 mm | - | 0 W/m² | - |
| 1777245940 | 3.89° C | 75% | 1023.7 hPa | 0 mm | - | 0 W/m² | - |
| 1777245339 | 4.44° C | 74% | 1023.8 hPa | 0 mm | - | 0 W/m² | - |
| 1777244732 | 3.89° C | 75% | 1023.7 hPa | 0 mm | - | 0 W/m² | - |
| 1777244132 | 5° C | 71% | 1023.7 hPa | 0 mm | - | 0 W/m² | - |
| 1777243526 | 5° C | 71% | 1023.7 hPa | 0 mm | - | 0 W/m² | - |
| 1777242922 | 5.56° C | 69% | 1023.6 hPa | 0 mm | - | 0 W/m² | - |
| 1777242321 | 5.56° C | 68% | 1023.7 hPa | 0 mm | - | 0 W/m² | - |
| 1777241774 | 5.56° C | 70% | 1023.7 hPa | 0 mm | - | 0 W/m² | - |
| 1777241169 | 6.11° C | 68% | 1023.6 hPa | 0 mm | - | 0 W/m² | - |
| 1777240568 | 6.11° C | 68% | 1023.5 hPa | 0 mm | - | 0 W/m² | - |
| 1777239961 | 6.11° C | 71% | 1023.6 hPa | 0 mm | - | 0 W/m² | - |
| 1777239357 | 6.11° C | 70% | 1023.5 hPa | 0 mm | - | 0 W/m² | - |
| 1777238754 | 6.67° C | 66% | 1023.6 hPa | 0 mm | - | 0 W/m² | - |
| 1777238151 | 6.67° C | 69% | 1023.5 hPa | 0 mm | - | 0 W/m² | - |
| 1777237551 | 7.22° C | 61% | 1023.4 hPa | 0 mm | - | 0 W/m² | - |
* Rain latest hour (hover to see other rain measurements)
** Current wind speed in m/s (hover to see current wind gust speed)